createdAt,value
2022-12-03T00:00:18.844Z,19.75
2022-12-03T00:03:03.877Z,19.43
2022-12-03T00:05:49.475Z,18.78
2022-12-03T00:08:34.668Z,18.85
2022-12-03T00:11:19.636Z,19.23
2022-12-03T00:14:04.589Z,19.11
2022-12-03T00:16:49.650Z,18.71
2022-12-03T00:19:34.598Z,19.18
2022-12-03T00:22:19.656Z,17.67
2022-12-03T00:25:04.535Z,17.85
2022-12-03T00:27:49.482Z,16.89
2022-12-03T00:30:34.271Z,16.10
2022-12-03T00:33:19.728Z,15.64
2022-12-03T00:36:04.671Z,17.10
2022-12-03T00:38:49.599Z,16.28
2022-12-03T00:41:34.521Z,15.60
2022-12-03T00:44:19.310Z,16.20
2022-12-03T00:47:04.326Z,16.17
2022-12-03T00:49:49.730Z,15.85
2022-12-03T00:52:34.567Z,15.54
2022-12-03T00:55:19.539Z,15.76
2022-12-03T00:58:04.478Z,16.16
2022-12-03T01:00:49.354Z,16.61
2022-12-03T01:03:34.252Z,16.13
2022-12-03T01:06:19.301Z,17.45
2022-12-03T01:09:04.099Z,16.87
2022-12-03T01:11:49.158Z,16.39
2022-12-03T01:14:34.043Z,17.34
2022-12-03T01:17:18.993Z,16.88
2022-12-03T01:20:03.914Z,16.25
2022-12-03T01:22:48.901Z,16.69
2022-12-03T01:25:33.877Z,17.46
2022-12-03T01:28:18.826Z,15.73
2022-12-03T01:31:03.887Z,16.62
2022-12-03T01:33:48.529Z,15.66
2022-12-03T01:36:33.429Z,15.49
2022-12-03T01:39:18.306Z,15.95
2022-12-03T01:42:03.316Z,15.19
2022-12-03T01:44:48.265Z,14.96
2022-12-03T01:47:33.294Z,14.03
2022-12-03T01:50:18.175Z,15.00
2022-12-03T01:53:03.242Z,14.33
2022-12-03T01:55:49.173Z,13.92
2022-12-03T01:58:34.071Z,15.41
2022-12-03T02:01:19.014Z,14.54
2022-12-03T02:04:03.895Z,14.69
2022-12-03T02:06:49.528Z,13.94
2022-12-03T02:09:34.393Z,14.00
2022-12-03T02:12:19.453Z,14.18
2022-12-03T02:15:04.385Z,14.33
2022-12-03T02:17:49.329Z,15.43
2022-12-03T02:20:34.374Z,14.44
2022-12-03T02:23:19.242Z,14.92
2022-12-03T02:26:04.104Z,13.99
2022-12-03T02:28:49.103Z,14.37
2022-12-03T02:31:34.082Z,14.96
2022-12-03T02:34:19.500Z,14.96
2022-12-03T02:37:04.411Z,15.74
2022-12-03T02:39:49.457Z,15.12
2022-12-03T02:42:34.340Z,15.67
2022-12-03T02:45:19.231Z,15.21
2022-12-03T02:48:04.102Z,15.28
2022-12-03T02:50:49.164Z,15.87
2022-12-03T02:53:34.149Z,15.57
2022-12-03T02:56:19.191Z,16.24
2022-12-03T02:59:04.155Z,16.68
2022-12-03T03:01:49.134Z,16.37
2022-12-03T03:04:34.162Z,16.41
2022-12-03T03:07:18.949Z,16.38
2022-12-03T03:10:03.756Z,16.16
2022-12-03T03:12:48.565Z,16.56
2022-12-03T03:15:33.514Z,17.27
2022-12-03T03:18:18.409Z,17.12
2022-12-03T03:21:03.334Z,16.68
2022-12-03T03:23:48.223Z,17.07
2022-12-03T03:26:33.064Z,16.95
2022-12-03T03:29:18.155Z,17.05
2022-12-03T03:32:03.085Z,16.59
2022-12-03T03:34:48.457Z,16.62
2022-12-03T03:37:33.363Z,16.44
2022-12-03T03:40:18.263Z,16.51
2022-12-03T03:43:03.165Z,16.63
2022-12-03T03:45:48.030Z,15.91
2022-12-03T03:48:33.078Z,16.45
2022-12-03T03:51:18.161Z,17.18
2022-12-03T03:54:03.266Z,16.07
2022-12-03T03:56:48.069Z,17.01
2022-12-03T03:59:33.090Z,16.95
2022-12-03T04:02:18.042Z,16.55
2022-12-03T04:05:03.224Z,16.40
2022-12-03T04:07:48.679Z,15.84
2022-12-03T04:10:33.454Z,16.28
2022-12-03T04:13:18.470Z,16.03
2022-12-03T04:16:03.475Z,16.12
2022-12-03T04:18:48.821Z,15.82
2022-12-03T04:21:33.619Z,16.11
2022-12-03T04:24:18.636Z,16.33
2022-12-03T04:27:03.458Z,16.56
2022-12-03T04:29:48.300Z,16.37
2022-12-03T04:32:33.492Z,15.74
2022-12-03T04:35:19.032Z,15.92
2022-12-03T04:38:04.291Z,15.78
2022-12-03T04:40:49.116Z,15.28
2022-12-03T04:43:34.172Z,15.44
2022-12-03T04:46:19.123Z,15.72
2022-12-03T04:49:04.107Z,15.70
2022-12-03T04:51:49.218Z,14.86
2022-12-03T04:54:34.051Z,14.78
2022-12-03T04:57:19.010Z,15.06
2022-12-03T05:00:03.843Z,14.56
2022-12-03T05:02:49.015Z,14.70
2022-12-03T05:05:34.506Z,14.37
2022-12-03T05:08:19.991Z,14.11
2022-12-03T05:11:04.939Z,14.27
2022-12-03T05:13:50.004Z,14.46
2022-12-03T05:16:34.884Z,14.54
2022-12-03T05:19:19.701Z,14.86
2022-12-03T05:22:04.699Z,14.46
2022-12-03T05:24:49.685Z,14.32
2022-12-03T05:27:34.608Z,14.30
2022-12-03T05:30:19.433Z,14.06
2022-12-03T05:33:04.371Z,14.76
2022-12-03T05:35:49.241Z,14.89
2022-12-03T05:38:34.164Z,13.75
2022-12-03T05:41:19.069Z,13.97
2022-12-03T05:44:03.930Z,13.49
2022-12-03T05:46:48.908Z,13.56
2022-12-03T05:49:33.699Z,13.67
2022-12-03T05:52:18.696Z,13.52
2022-12-03T05:55:03.499Z,13.26
2022-12-03T05:57:48.455Z,12.94
2022-12-03T06:00:37.640Z,12.96
2022-12-03T06:03:26.128Z,13.26
2022-12-03T06:06:11.259Z,13.30
2022-12-03T06:08:56.313Z,13.75
2022-12-03T06:11:41.216Z,13.72
2022-12-03T06:14:26.126Z,13.19
2022-12-03T06:17:10.985Z,13.89
2022-12-03T06:19:55.870Z,13.67
2022-12-03T06:22:40.731Z,13.15
2022-12-03T06:25:25.768Z,13.30
2022-12-03T06:28:10.721Z,13.75
2022-12-03T06:30:55.826Z,13.88
2022-12-03T06:33:41.151Z,13.32
2022-12-03T06:36:26.210Z,13.41
2022-12-03T06:39:11.245Z,12.90
2022-12-03T06:41:56.247Z,13.26
2022-12-03T06:44:41.148Z,13.35
2022-12-03T06:47:26.086Z,13.03
2022-12-03T06:50:11.017Z,12.65
2022-12-03T06:52:55.820Z,13.30
2022-12-03T06:55:40.658Z,12.70
2022-12-03T06:58:25.597Z,13.13
2022-12-03T07:01:10.541Z,12.80
2022-12-03T07:03:55.422Z,12.87
2022-12-03T07:06:40.307Z,12.38
2022-12-03T07:09:25.168Z,12.26
2022-12-03T07:12:10.390Z,12.43
2022-12-03T07:14:55.625Z,12.49
2022-12-03T07:17:41.186Z,12.27
2022-12-03T07:20:25.940Z,12.27
2022-12-03T07:23:10.804Z,12.07
2022-12-03T07:25:55.568Z,12.66
2022-12-03T07:28:40.478Z,12.45
2022-12-03T07:31:25.472Z,12.54
2022-12-03T07:34:10.178Z,13.69
2022-12-03T07:36:55.297Z,14.69
2022-12-03T07:39:40.195Z,13.75
2022-12-03T07:42:25.087Z,12.72
2022-12-03T07:45:09.997Z,12.44
2022-12-03T07:47:54.969Z,12.67
2022-12-03T07:50:39.769Z,12.29
2022-12-03T07:53:24.809Z,12.64
2022-12-03T07:56:09.650Z,12.92
2022-12-03T07:58:54.485Z,12.76
2022-12-03T08:01:39.572Z,12.61
2022-12-03T08:04:24.903Z,12.58
2022-12-03T08:07:09.853Z,12.53
2022-12-03T08:09:54.690Z,12.49
2022-12-03T08:12:39.610Z,12.78
2022-12-03T08:15:24.470Z,13.09
2022-12-03T08:18:09.393Z,13.12
2022-12-03T08:20:54.230Z,12.61
2022-12-03T08:23:39.202Z,12.33
2022-12-03T08:26:24.281Z,12.54
2022-12-03T08:29:09.095Z,12.96
2022-12-03T08:31:54.179Z,13.26
2022-12-03T08:34:39.602Z,13.09
2022-12-03T08:37:24.609Z,12.60
2022-12-03T08:40:09.465Z,13.78
2022-12-03T08:42:54.386Z,13.87
2022-12-03T08:45:39.454Z,15.07
2022-12-03T08:48:24.822Z,14.56
2022-12-03T08:51:09.805Z,14.14
2022-12-03T08:54:01.083Z,14.50
2022-12-03T08:56:46.717Z,14.35
2022-12-03T08:59:31.608Z,13.90
2022-12-03T09:02:16.402Z,14.02
2022-12-03T09:05:01.414Z,15.00
2022-12-03T09:07:46.360Z,14.59
2022-12-03T09:10:31.157Z,14.99
2022-12-03T09:13:16.195Z,14.71
2022-12-03T09:16:01.195Z,15.70
2022-12-03T09:18:46.137Z,16.02
2022-12-03T09:21:30.896Z,16.61
2022-12-03T09:24:15.736Z,16.33
2022-12-03T09:27:00.616Z,15.88
2022-12-03T09:29:45.593Z,15.98
2022-12-03T09:32:30.685Z,15.79
2022-12-03T09:35:15.530Z,15.98
2022-12-03T09:38:00.471Z,16.37
2022-12-03T09:40:45.313Z,15.82
2022-12-03T09:43:49.547Z,16.30
2022-12-03T09:46:35.647Z,16.64
2022-12-03T09:49:20.946Z,16.08
2022-12-03T09:52:05.875Z,16.36
2022-12-03T09:54:50.726Z,17.06
2022-12-03T09:57:35.672Z,17.62
2022-12-03T10:00:20.486Z,18.35
2022-12-03T10:03:05.497Z,17.41
2022-12-03T10:05:50.541Z,17.66
2022-12-03T10:08:35.388Z,17.63
2022-12-03T10:11:20.264Z,18.27
2022-12-03T10:14:05.134Z,17.74
2022-12-03T10:16:50.029Z,17.97
2022-12-03T10:19:34.735Z,17.86
2022-12-03T10:22:19.630Z,16.75
2022-12-03T10:25:04.474Z,17.43
2022-12-03T10:27:49.505Z,17.46
2022-12-03T10:30:34.443Z,17.35
2022-12-03T10:33:19.455Z,16.20
2022-12-03T10:36:04.379Z,16.64
2022-12-03T10:38:49.315Z,16.73
2022-12-03T10:41:34.374Z,15.83
2022-12-03T10:44:19.246Z,15.81
2022-12-03T10:47:04.401Z,15.88
2022-12-03T10:49:49.706Z,16.24
2022-12-03T10:52:34.630Z,16.46
2022-12-03T10:55:19.649Z,16.25
2022-12-03T10:58:04.427Z,16.04
2022-12-03T11:00:49.452Z,16.42
2022-12-03T11:03:34.617Z,16.31
2022-12-03T11:06:19.613Z,16.05
2022-12-03T11:09:08.714Z,16.37
2022-12-03T11:11:54.358Z,16.63
2022-12-03T11:14:39.237Z,16.80
2022-12-03T11:17:24.783Z,16.16
2022-12-03T11:20:09.592Z,16.84
2022-12-03T11:22:54.509Z,17.52
2022-12-03T11:25:39.484Z,17.48
2022-12-03T11:28:24.418Z,16.73
2022-12-03T11:31:09.396Z,17.61
2022-12-03T11:33:54.205Z,17.56
2022-12-03T11:37:00.729Z,17.80
2022-12-03T11:39:44.236Z,16.84
2022-12-03T11:42:29.117Z,18.13
2022-12-03T11:45:13.983Z,17.78
2022-12-03T11:47:58.923Z,18.88
2022-12-03T11:50:43.788Z,18.60
2022-12-03T11:53:28.755Z,19.29
2022-12-03T11:56:13.515Z,18.21
2022-12-03T11:58:58.338Z,18.43
2022-12-03T12:01:43.281Z,19.12
2022-12-03T12:04:28.242Z,18.22
2022-12-03T12:07:13.595Z,18.93
2022-12-03T12:09:58.605Z,17.73
2022-12-03T12:12:54.315Z,18.22
2022-12-03T12:15:39.635Z,17.96
2022-12-03T12:18:24.686Z,17.69
2022-12-03T12:21:09.587Z,18.19
2022-12-03T12:23:54.570Z,17.85
2022-12-03T12:26:39.377Z,18.11
2022-12-03T12:29:24.396Z,18.26
2022-12-03T12:32:09.478Z,19.14
2022-12-03T12:34:54.923Z,18.56
2022-12-03T12:37:42.622Z,17.95
2022-12-03T12:40:29.722Z,18.58
2022-12-03T12:43:20.356Z,18.16
2022-12-03T12:46:38.640Z,18.34
2022-12-03T12:49:13.944Z,18.73
2022-12-03T12:51:58.901Z,18.15
2022-12-03T12:54:43.819Z,18.11
2022-12-03T12:57:29.715Z,17.53
2022-12-03T13:00:14.709Z,17.80
2022-12-03T13:03:00.415Z,18.00
2022-12-03T13:05:45.881Z,18.38
2022-12-03T13:08:30.796Z,17.59
2022-12-03T13:11:15.821Z,18.26
2022-12-03T13:14:00.749Z,17.98
2022-12-03T13:16:45.856Z,18.71
2022-12-03T13:19:31.331Z,17.95
2022-12-03T13:22:16.393Z,18.75
2022-12-03T13:25:01.373Z,18.46
2022-12-03T13:27:46.308Z,18.85
2022-12-03T13:30:31.340Z,19.18
2022-12-03T13:33:16.324Z,19.29
2022-12-03T13:36:01.300Z,19.47
2022-12-03T13:38:46.094Z,19.40
2022-12-03T13:41:31.168Z,19.56
2022-12-03T13:44:16.053Z,19.75
2022-12-03T13:47:01.143Z,20.23
2022-12-03T13:49:46.059Z,21.04
2022-12-03T13:52:31.057Z,20.97
2022-12-03T13:55:17.314Z,20.48
2022-12-03T13:58:17.720Z,21.43
2022-12-03T14:01:03.102Z,21.42
2022-12-03T14:03:48.426Z,21.79
2022-12-03T14:06:33.611Z,22.16
2022-12-03T14:09:18.536Z,22.41
2022-12-03T14:12:03.671Z,22.77
2022-12-03T14:14:48.724Z,21.55
2022-12-03T14:17:33.639Z,22.27
2022-12-03T14:20:18.737Z,22.09
2022-12-03T14:23:03.731Z,22.74
2022-12-03T14:25:49.176Z,22.32
2022-12-03T14:28:34.120Z,22.94
2022-12-03T14:31:19.087Z,22.18
2022-12-03T14:34:04.556Z,22.16
2022-12-03T14:36:49.605Z,21.79
2022-12-03T14:39:34.490Z,23.28
2022-12-03T14:42:19.641Z,22.80
2022-12-03T14:45:04.665Z,22.25
2022-12-03T14:47:50.090Z,24.22
2022-12-03T14:50:35.161Z,23.87
2022-12-03T14:53:25.613Z,22.74
2022-12-03T14:56:12.162Z,23.06
2022-12-03T14:58:57.190Z,23.75
2022-12-03T15:01:42.238Z,23.27
2022-12-03T15:04:27.638Z,23.01
2022-12-03T15:07:12.573Z,22.85
2022-12-03T15:09:57.699Z,22.50
2022-12-03T15:12:43.055Z,23.56
2022-12-03T15:15:27.973Z,22.94
2022-12-03T15:18:12.828Z,23.65
2022-12-03T15:20:57.910Z,22.27
2022-12-03T15:23:42.865Z,22.78
2022-12-03T15:26:27.906Z,23.31
2022-12-03T15:29:12.743Z,22.76
2022-12-03T15:31:57.725Z,23.33
2022-12-03T15:34:44.955Z,23.24
2022-12-03T15:37:29.969Z,23.49
2022-12-03T15:40:14.810Z,21.66
2022-12-03T15:42:59.695Z,22.45
2022-12-03T15:45:44.672Z,22.89
2022-12-03T15:48:29.414Z,23.22
2022-12-03T15:51:14.499Z,23.18
2022-12-03T15:54:00.826Z,23.74
2022-12-03T15:56:46.165Z,23.78
2022-12-03T15:59:31.666Z,24.35
2022-12-03T16:02:16.689Z,23.18
2022-12-03T16:05:02.212Z,23.79
2022-12-03T16:07:48.388Z,24.28
2022-12-03T16:10:33.764Z,23.33
2022-12-03T16:13:18.907Z,23.84
2022-12-03T16:16:03.751Z,24.39
2022-12-03T16:18:49.435Z,24.71
2022-12-03T16:21:34.996Z,23.45
2022-12-03T16:24:19.903Z,23.73
2022-12-03T16:27:05.044Z,23.01
2022-12-03T16:29:50.032Z,23.21
2022-12-03T16:32:35.072Z,23.44
2022-12-03T16:35:19.930Z,24.22
2022-12-03T16:38:04.949Z,24.93
2022-12-03T16:40:50.520Z,24.25
2022-12-03T16:43:35.512Z,23.33
2022-12-03T16:46:20.460Z,23.44
2022-12-03T16:49:05.928Z,22.78
2022-12-03T16:51:50.888Z,23.10
2022-12-03T16:54:35.807Z,24.29
2022-12-03T16:57:20.679Z,27.56
2022-12-03T17:00:05.504Z,36.71
2022-12-03T17:02:50.527Z,27.56
2022-12-03T17:05:36.005Z,24.24
2022-12-03T17:08:20.886Z,24.08
2022-12-03T17:11:06.782Z,24.53
2022-12-03T17:13:51.995Z,23.96
2022-12-03T17:16:37.059Z,23.78
2022-12-03T17:19:22.026Z,24.25
2022-12-03T17:22:07.026Z,23.60
2022-12-03T17:24:51.989Z,22.46
2022-12-03T17:27:40.823Z,22.41
2022-12-03T17:30:30.034Z,21.97
2022-12-03T17:33:15.076Z,22.35
2022-12-03T17:36:00.113Z,22.70
2022-12-03T17:38:45.138Z,22.50
2022-12-03T17:41:30.064Z,23.95
2022-12-03T17:44:19.388Z,24.41
2022-12-03T17:47:05.912Z,22.98
2022-12-03T17:49:50.896Z,23.02
2022-12-03T17:52:35.883Z,22.91
2022-12-03T17:55:28.180Z,23.38
2022-12-03T17:58:21.129Z,24.03
2022-12-03T18:01:06.139Z,24.67
2022-12-03T18:03:51.675Z,24.11
2022-12-03T18:06:37.060Z,23.43
2022-12-03T18:09:22.049Z,26.02
2022-12-03T18:12:06.990Z,24.00
2022-12-03T18:14:51.932Z,24.39
2022-12-03T18:17:36.829Z,26.48
2022-12-03T18:20:22.993Z,25.03
2022-12-03T18:23:08.296Z,27.38
2022-12-03T18:25:53.357Z,26.12
2022-12-03T18:28:38.205Z,25.23
2022-12-03T18:31:23.200Z,28.69
2022-12-03T18:34:09.028Z,38.98
2022-12-03T18:36:54.152Z,35.42
2022-12-03T18:39:39.148Z,32.54
2022-12-03T18:42:23.987Z,37.06
2022-12-03T18:45:09.121Z,38.52
2022-12-03T18:47:54.456Z,34.68
2022-12-03T18:50:39.863Z,40.54
2022-12-03T18:53:24.891Z,31.30
2022-12-03T18:56:10.345Z,27.64
2022-12-03T18:58:55.340Z,27.11
2022-12-03T19:01:40.270Z,26.63
2022-12-03T19:04:25.254Z,25.58
2022-12-03T19:07:10.135Z,27.97
2022-12-03T19:09:55.608Z,25.21
2022-12-03T19:12:40.992Z,25.98
2022-12-03T19:15:26.194Z,35.59
2022-12-03T19:18:11.201Z,31.72
2022-12-03T19:20:56.173Z,31.28
2022-12-03T19:23:41.404Z,36.26
2022-12-03T19:26:28.150Z,25.63
2022-12-03T19:29:13.137Z,27.84
2022-12-03T19:31:58.250Z,27.86
2022-12-03T19:34:43.583Z,26.41
2022-12-03T19:37:28.559Z,26.37
2022-12-03T19:40:13.386Z,26.71
2022-12-03T19:42:58.487Z,31.56
2022-12-03T19:45:43.525Z,32.98
2022-12-03T19:48:28.561Z,25.64
2022-12-03T19:51:33.734Z,29.53
2022-12-03T19:54:18.779Z,27.82
2022-12-03T19:57:03.688Z,24.65
2022-12-03T19:59:48.700Z,25.48
2022-12-03T20:02:33.731Z,27.35
2022-12-03T20:05:19.109Z,25.11
2022-12-03T20:08:04.083Z,24.23
2022-12-03T20:10:49.394Z,24.40
2022-12-03T20:13:36.520Z,24.27
2022-12-03T20:16:21.798Z,23.13
2022-12-03T20:19:06.708Z,22.21
2022-12-03T20:21:51.613Z,21.76
2022-12-03T20:24:36.540Z,23.28
2022-12-03T20:27:23.159Z,23.82
2022-12-03T20:30:08.557Z,22.69
2022-12-03T20:32:53.646Z,24.13
2022-12-03T20:35:38.639Z,22.61
2022-12-03T20:38:23.646Z,23.72
2022-12-03T20:41:08.608Z,43.27
2022-12-03T20:43:53.633Z,30.41
2022-12-03T20:46:38.712Z,27.44
2022-12-03T20:49:23.606Z,33.28
2022-12-03T20:52:08.495Z,26.07
2022-12-03T20:54:53.548Z,25.25
2022-12-03T20:57:38.644Z,29.18
2022-12-03T21:00:23.471Z,25.83
2022-12-03T21:03:08.417Z,24.07
2022-12-03T21:05:53.281Z,24.93
2022-12-03T21:08:42.462Z,24.77
2022-12-03T21:11:27.914Z,26.07
2022-12-03T21:14:12.835Z,27.17
2022-12-03T21:17:08.374Z,26.32
2022-12-03T21:19:54.720Z,24.67
2022-12-03T21:22:40.252Z,25.05
2022-12-03T21:25:25.213Z,23.77
2022-12-03T21:28:10.255Z,23.26
2022-12-03T21:30:55.130Z,23.76
2022-12-03T21:33:39.886Z,22.33
2022-12-03T21:36:24.870Z,23.09
2022-12-03T21:39:09.714Z,22.41
2022-12-03T21:42:34.054Z,22.26
2022-12-03T21:44:59.763Z,23.42
2022-12-03T21:47:44.839Z,22.63
2022-12-03T21:50:30.134Z,22.54
2022-12-03T21:53:15.183Z,23.25
2022-12-03T21:56:00.351Z,22.43
2022-12-03T21:58:45.351Z,22.55
2022-12-03T22:01:30.570Z,23.34
2022-12-03T22:04:15.305Z,24.57
2022-12-03T22:07:00.354Z,29.78
2022-12-03T22:09:45.313Z,24.78
2022-12-03T22:12:30.287Z,23.73
2022-12-03T22:15:19.026Z,24.09
2022-12-03T22:18:04.404Z,24.73
2022-12-03T22:20:49.616Z,23.74
2022-12-03T22:23:34.387Z,23.29
2022-12-03T22:26:19.352Z,22.84
2022-12-03T22:29:04.425Z,23.03
2022-12-03T22:31:49.445Z,22.73
2022-12-03T22:34:34.450Z,22.97
2022-12-03T22:37:19.290Z,23.97
2022-12-03T22:40:04.258Z,23.16
2022-12-03T22:42:51.113Z,23.77
2022-12-03T22:45:36.166Z,23.46
2022-12-03T22:48:20.995Z,23.02
2022-12-03T22:51:05.828Z,23.54
2022-12-03T22:53:50.855Z,23.54
2022-12-03T22:56:35.659Z,22.72
2022-12-03T22:59:20.554Z,23.07
2022-12-03T23:02:05.551Z,22.43
2022-12-03T23:04:51.364Z,22.80
2022-12-03T23:07:36.471Z,21.83
2022-12-03T23:10:21.381Z,21.96
2022-12-03T23:13:06.949Z,21.73
2022-12-03T23:15:52.033Z,21.17
2022-12-03T23:18:37.492Z,21.74
2022-12-03T23:21:28.586Z,21.16
2022-12-03T23:24:14.968Z,21.56
2022-12-03T23:26:59.836Z,20.40
2022-12-03T23:29:44.944Z,20.52
2022-12-03T23:32:29.766Z,20.94
2022-12-03T23:35:14.938Z,21.49
2022-12-03T23:38:00.019Z,21.45
2022-12-03T23:40:48.336Z,20.49
2022-12-03T23:43:33.561Z,20.89
2022-12-03T23:46:20.927Z,20.31
2022-12-03T23:49:05.857Z,20.55
2022-12-03T23:51:51.015Z,21.01
2022-12-03T23:54:36.040Z,20.48
2022-12-03T23:57:20.994Z,20.13
